createdAt,value
2019-05-20T00:00:17.290Z,0
2019-05-20T00:01:18.685Z,0
2019-05-20T00:02:26.010Z,0
2019-05-20T00:03:21.542Z,0
2019-05-20T00:04:22.961Z,0
2019-05-20T00:05:24.808Z,0
2019-05-20T00:06:25.886Z,0
2019-05-20T00:07:27.386Z,0
2019-05-20T00:08:28.839Z,0
2019-05-20T00:09:30.146Z,0
2019-05-20T00:10:31.706Z,0
2019-05-20T00:11:33.107Z,0
2019-05-20T00:12:34.506Z,0
2019-05-20T00:13:36.029Z,0
2019-05-20T00:14:37.424Z,0
2019-05-20T00:15:38.820Z,0
2019-05-20T00:16:40.349Z,0
2019-05-20T00:17:41.745Z,0
2019-05-20T00:18:43.230Z,0
2019-05-20T00:19:44.625Z,0
2019-05-20T00:20:46.112Z,0
2019-05-20T00:21:47.512Z,0
2019-05-20T00:22:48.992Z,0
2019-05-20T00:23:50.397Z,0
2019-05-20T00:24:51.874Z,0
2019-05-20T00:25:53.271Z,0
2019-05-20T00:26:54.754Z,0
2019-05-20T00:27:56.154Z,0
2019-05-20T00:28:57.635Z,0
2019-05-20T00:29:59.035Z,0
2019-05-20T00:31:00.584Z,0
2019-05-20T00:32:01.949Z,0
2019-05-20T00:33:03.601Z,0
2019-05-20T00:34:04.999Z,0
2019-05-20T00:35:06.396Z,0
2019-05-20T00:36:07.995Z,0
2019-05-20T00:37:09.421Z,0
2019-05-20T00:38:10.818Z,0
2019-05-20T00:39:12.450Z,0
2019-05-20T00:40:13.846Z,0
2019-05-20T00:41:15.251Z,0
2019-05-20T00:42:16.780Z,0
2019-05-20T00:43:18.174Z,0
2019-05-20T00:44:19.654Z,0
2019-05-20T00:45:21.045Z,0
2019-05-20T00:46:22.451Z,0
2019-05-20T00:47:23.971Z,0
2019-05-20T00:48:25.380Z,0
2019-05-20T00:49:26.773Z,0
2019-05-20T00:50:28.294Z,0
2019-05-20T00:51:29.691Z,0
2019-05-20T00:52:31.182Z,0
2019-05-20T00:53:32.585Z,0
2019-05-20T00:54:34.262Z,0
2019-05-20T00:55:35.655Z,0
2019-05-20T00:56:37.055Z,0
2019-05-20T00:57:38.504Z,0
2019-05-20T00:58:39.898Z,0
2019-05-20T00:59:41.467Z,0
2019-05-20T01:00:42.858Z,0
2019-05-20T01:01:44.345Z,0
2019-05-20T01:02:56.461Z,0
2019-05-20T01:03:47.225Z,0
2019-05-20T01:04:48.621Z,0
2019-05-20T01:05:50.031Z,0
2019-05-20T01:06:51.546Z,0
2019-05-20T01:07:52.996Z,0
2019-05-20T01:08:54.400Z,0
2019-05-20T01:09:55.869Z,0
2019-05-20T01:10:57.269Z,0
2019-05-20T01:11:58.669Z,0
2019-05-20T01:13:00.189Z,0
2019-05-20T01:14:01.581Z,0
2019-05-20T01:15:02.984Z,0
2019-05-20T01:16:04.517Z,0
2019-05-20T01:17:05.911Z,0
2019-05-20T01:18:07.315Z,0
2019-05-20T01:19:08.835Z,0
2019-05-20T01:20:10.235Z,0
2019-05-20T01:21:11.628Z,0
2019-05-20T01:22:13.171Z,0
2019-05-20T01:23:14.555Z,0
2019-05-20T01:24:16.037Z,0
2019-05-20T01:25:17.432Z,0
2019-05-20T01:26:18.917Z,0
2019-05-20T01:27:20.312Z,0
2019-05-20T01:28:21.807Z,0
2019-05-20T01:29:23.238Z,0
2019-05-20T01:30:24.887Z,0
2019-05-20T01:31:26.282Z,0
2019-05-20T01:32:27.677Z,0
2019-05-20T01:33:29.208Z,0
2019-05-20T01:34:30.667Z,0
2019-05-20T01:35:32.062Z,0
2019-05-20T01:36:33.785Z,0
2019-05-20T01:37:35.098Z,0
2019-05-20T01:38:36.991Z,0
2019-05-20T01:39:38.389Z,0
2019-05-20T01:40:39.790Z,0
2019-05-20T01:41:41.341Z,0
2019-05-20T01:42:42.735Z,0
2019-05-20T01:43:44.132Z,0
2019-05-20T01:44:45.692Z,0
2019-05-20T01:45:47.147Z,0
2019-05-20T01:46:48.552Z,0
2019-05-20T01:47:50.187Z,0
2019-05-20T01:48:51.583Z,0
2019-05-20T01:49:52.980Z,0
2019-05-20T01:50:54.524Z,0
2019-05-20T01:51:55.929Z,0
2019-05-20T01:52:57.327Z,0
2019-05-20T01:53:58.829Z,0
2019-05-20T01:55:00.240Z,0
2019-05-20T01:56:01.657Z,0
2019-05-20T01:57:03.151Z,0
2019-05-20T01:58:04.552Z,0
2019-05-20T01:59:06.035Z,0
2019-05-20T02:00:07.429Z,0
2019-05-20T02:01:08.914Z,0
2019-05-20T02:02:10.313Z,0
2019-05-20T02:03:11.710Z,0
2019-05-20T02:04:13.233Z,0
2019-05-20T02:05:14.635Z,0
2019-05-20T02:06:16.030Z,0
2019-05-20T02:07:17.554Z,0
2019-05-20T02:08:19.368Z,0
2019-05-20T02:09:20.848Z,0
2019-05-20T02:10:22.243Z,0
2019-05-20T02:11:23.639Z,0
2019-05-20T02:12:25.574Z,0
2019-05-20T02:13:26.971Z,0
2019-05-20T02:14:28.370Z,0
2019-05-20T02:15:29.900Z,0
2019-05-20T02:16:31.316Z,0
2019-05-20T02:17:32.774Z,0
2019-05-20T02:18:34.428Z,0
2019-05-20T02:19:35.823Z,0
2019-05-20T02:20:37.302Z,0
2019-05-20T02:21:38.702Z,0
2019-05-20T02:22:40.154Z,0
2019-05-20T02:23:41.502Z,0
2019-05-20T02:24:42.897Z,0
2019-05-20T02:25:46.669Z,0
2019-05-20T02:26:45.875Z,0
2019-05-20T02:27:47.278Z,0
2019-05-20T02:28:48.832Z,0
2019-05-20T02:29:50.230Z,0
2019-05-20T02:30:51.637Z,0
2019-05-20T02:31:53.152Z,0
2019-05-20T02:32:54.548Z,0
2019-05-20T02:33:56.001Z,0
2019-05-20T02:34:57.478Z,0
2019-05-20T02:35:58.876Z,0
2019-05-20T02:37:00.272Z,0
2019-05-20T02:38:01.799Z,0
2019-05-20T02:39:03.243Z,0
2019-05-20T02:40:05.259Z,0
2019-05-20T02:41:06.656Z,0
2019-05-20T02:42:08.175Z,0
2019-05-20T02:43:09.574Z,0
2019-05-20T02:44:11.052Z,0
2019-05-20T02:45:12.451Z,0
2019-05-20T02:46:13.848Z,0
2019-05-20T02:47:15.387Z,0
2019-05-20T02:48:16.782Z,0
2019-05-20T02:49:18.172Z,0
2019-05-20T02:50:19.698Z,0
2019-05-20T02:51:21.099Z,0
2019-05-20T02:52:22.495Z,0
2019-05-20T02:53:24.019Z,0
2019-05-20T02:54:25.416Z,0
2019-05-20T02:55:26.847Z,0
2019-05-20T02:56:28.340Z,0
2019-05-20T02:57:29.739Z,0
2019-05-20T02:58:31.140Z,0
2019-05-20T02:59:32.664Z,4
2019-05-20T03:00:34.080Z,4
2019-05-20T03:01:35.480Z,4
2019-05-20T03:02:36.992Z,4
2019-05-20T03:03:38.388Z,4
2019-05-20T03:04:39.780Z,0
2019-05-20T03:05:41.361Z,0
2019-05-20T03:06:42.785Z,4
2019-05-20T03:07:44.183Z,4
2019-05-20T03:08:45.834Z,4
2019-05-20T03:09:47.237Z,4
2019-05-20T03:10:48.711Z,4
2019-05-20T03:11:50.106Z,8
2019-05-20T03:12:51.502Z,4
2019-05-20T03:13:53.030Z,8
2019-05-20T03:14:54.431Z,4
2019-05-20T03:15:55.832Z,8
2019-05-20T03:16:57.355Z,12
2019-05-20T03:17:58.751Z,8
2019-05-20T03:19:00.149Z,12
2019-05-20T03:20:01.676Z,12
2019-05-20T03:21:03.079Z,12
2019-05-20T03:22:04.476Z,16
2019-05-20T03:23:06.376Z,16
2019-05-20T03:24:07.772Z,16
2019-05-20T03:25:09.298Z,16
2019-05-20T03:26:10.686Z,16
2019-05-20T03:27:12.224Z,20
2019-05-20T03:28:13.628Z,20
2019-05-20T03:29:15.254Z,24
2019-05-20T03:30:16.669Z,28
2019-05-20T03:31:18.135Z,28
2019-05-20T03:32:19.569Z,28
2019-05-20T03:33:21.229Z,32
2019-05-20T03:34:43.380Z,40
2019-05-20T03:35:24.005Z,36
2019-05-20T03:36:25.548Z,40
2019-05-20T03:37:26.947Z,40
2019-05-20T03:38:28.850Z,44
2019-05-20T03:39:30.626Z,44
2019-05-20T03:40:32.124Z,48
2019-05-20T03:41:33.522Z,48
2019-05-20T03:42:34.935Z,52
2019-05-20T03:43:36.495Z,60
2019-05-20T03:44:37.893Z,64
2019-05-20T03:45:39.331Z,64
2019-05-20T03:46:40.977Z,64
2019-05-20T03:47:42.382Z,68
2019-05-20T03:48:44.163Z,72
2019-05-20T03:49:45.704Z,76
2019-05-20T03:50:47.099Z,80
2019-05-20T03:51:52.224Z,80
2019-05-20T03:52:50.029Z,80
2019-05-20T03:53:51.432Z,80
2019-05-20T03:54:52.930Z,80
2019-05-20T03:55:54.329Z,80
2019-05-20T03:56:55.997Z,84
2019-05-20T03:57:57.800Z,88
2019-05-20T03:58:59.201Z,96
2019-05-20T04:00:00.770Z,108
2019-05-20T04:01:02.175Z,112
2019-05-20T04:02:03.571Z,120
2019-05-20T04:03:05.047Z,120
2019-05-20T04:04:06.447Z,128
2019-05-20T04:05:07.848Z,128
2019-05-20T04:06:09.367Z,128
2019-05-20T04:07:10.761Z,144
2019-05-20T04:08:12.166Z,136
2019-05-20T04:09:13.689Z,136
2019-05-20T04:10:15.089Z,136
2019-05-20T04:11:16.567Z,136
2019-05-20T04:12:17.981Z,140
2019-05-20T04:13:20.856Z,140
2019-05-20T04:14:22.252Z,136
2019-05-20T04:15:23.764Z,132
2019-05-20T04:16:25.164Z,136
2019-05-20T04:17:26.643Z,144
2019-05-20T04:18:28.045Z,152
2019-05-20T04:19:29.526Z,160
2019-05-20T04:20:30.925Z,172
2019-05-20T04:21:32.413Z,184
2019-05-20T04:22:33.809Z,188
2019-05-20T04:23:35.569Z,196
2019-05-20T04:24:36.935Z,192
2019-05-20T04:25:38.334Z,212
2019-05-20T04:26:39.741Z,212
2019-05-20T04:27:41.302Z,224
2019-05-20T04:28:42.703Z,216
2019-05-20T04:29:44.341Z,228
2019-05-20T04:30:45.745Z,236
2019-05-20T04:31:47.228Z,252
2019-05-20T04:32:48.658Z,240
2019-05-20T04:33:50.055Z,232
2019-05-20T04:34:51.546Z,252
2019-05-20T04:35:52.949Z,248
2019-05-20T04:36:54.349Z,240
2019-05-20T04:37:55.873Z,240
2019-05-20T04:38:57.274Z,232
2019-05-20T04:39:58.695Z,232
2019-05-20T04:41:00.188Z,232
2019-05-20T04:42:01.668Z,240
2019-05-20T04:43:03.005Z,244
2019-05-20T04:44:04.584Z,236
2019-05-20T04:45:05.986Z,236
2019-05-20T04:46:07.594Z,244
2019-05-20T04:47:08.994Z,252
2019-05-20T04:48:13.722Z,244
2019-05-20T04:49:11.846Z,240
2019-05-20T04:50:13.356Z,264
2019-05-20T04:51:14.759Z,272
2019-05-20T04:52:16.234Z,268
2019-05-20T04:53:17.635Z,308
2019-05-20T04:54:19.148Z,360
2019-05-20T04:55:20.548Z,416
2019-05-20T04:56:22.201Z,392
2019-05-20T04:57:23.604Z,396
2019-05-20T04:58:25.088Z,452
2019-05-20T04:59:26.490Z,436
2019-05-20T05:00:27.964Z,448
2019-05-20T05:01:29.368Z,468
2019-05-20T05:02:30.844Z,500
2019-05-20T05:03:32.245Z,584
2019-05-20T05:04:33.647Z,584
2019-05-20T05:05:37.745Z,532
2019-05-20T05:06:36.562Z,580
2019-05-20T05:07:37.933Z,580
2019-05-20T05:08:39.487Z,568
2019-05-20T05:09:41.267Z,556
2019-05-20T05:10:42.689Z,576
2019-05-20T05:11:44.218Z,580
2019-05-20T05:12:45.628Z,600
2019-05-20T05:13:47.028Z,620
2019-05-20T05:14:48.600Z,604
2019-05-20T05:15:50.037Z,604
2019-05-20T05:16:51.629Z,660
2019-05-20T05:17:53.035Z,640
2019-05-20T05:18:54.434Z,556
2019-05-20T05:19:55.950Z,580
2019-05-20T05:20:57.393Z,560
2019-05-20T05:21:58.800Z,584
2019-05-20T05:23:00.265Z,564
2019-05-20T05:24:01.621Z,536
2019-05-20T05:25:03.151Z,584
2019-05-20T05:26:04.554Z,552
2019-05-20T05:27:06.030Z,568
2019-05-20T05:28:07.440Z,580
2019-05-20T05:29:08.839Z,548
2019-05-20T05:30:10.353Z,540
2019-05-20T05:31:11.757Z,580
2019-05-20T05:32:13.162Z,644
2019-05-20T05:33:14.675Z,596
2019-05-20T05:34:16.108Z,552
2019-05-20T05:35:17.561Z,600
2019-05-20T05:36:18.961Z,640
2019-05-20T05:37:20.454Z,660
2019-05-20T05:38:21.837Z,680
2019-05-20T05:39:23.236Z,732
2019-05-20T05:40:24.777Z,816
2019-05-20T05:41:26.186Z,712
2019-05-20T05:42:27.603Z,820
2019-05-20T05:43:29.075Z,844
2019-05-20T05:44:30.486Z,948
2019-05-20T05:45:31.892Z,960
2019-05-20T05:46:33.396Z,928
2019-05-20T05:47:34.876Z,956
2019-05-20T05:48:36.270Z,968
2019-05-20T05:49:37.924Z,1056
2019-05-20T05:50:39.330Z,960
2019-05-20T05:51:40.752Z,980
2019-05-20T05:52:42.245Z,984
2019-05-20T05:53:44.451Z,928
2019-05-20T05:54:45.825Z,804
2019-05-20T05:55:47.386Z,720
2019-05-20T05:56:48.793Z,928
2019-05-20T05:57:50.268Z,824
2019-05-20T05:58:51.723Z,1024
2019-05-20T05:59:53.358Z,1064
2019-05-20T06:00:54.782Z,864
2019-05-20T06:01:56.440Z,784
2019-05-20T06:02:57.844Z,744
2019-05-20T06:03:59.273Z,732
2019-05-20T06:05:00.729Z,908
2019-05-20T06:06:12.369Z,948
2019-05-20T06:07:03.489Z,992
2019-05-20T06:08:05.040Z,988
2019-05-20T06:09:06.439Z,1056
2019-05-20T06:10:07.848Z,1056
2019-05-20T06:11:09.360Z,1016
2019-05-20T06:12:10.764Z,980
2019-05-20T06:13:12.242Z,944
2019-05-20T06:14:13.645Z,884
2019-05-20T06:15:15.061Z,964
2019-05-20T06:16:16.559Z,948
2019-05-20T06:17:17.965Z,868
2019-05-20T06:18:19.361Z,872
2019-05-20T06:19:20.901Z,972
2019-05-20T06:20:22.328Z,1128
2019-05-20T06:21:23.774Z,1260
2019-05-20T06:22:25.173Z,1248
2019-05-20T06:23:26.644Z,1152
2019-05-20T06:24:28.050Z,1100
2019-05-20T06:25:29.684Z,1232
2019-05-20T06:26:31.087Z,1396
2019-05-20T06:27:32.658Z,1412
2019-05-20T06:28:34.062Z,1392
2019-05-20T06:29:35.504Z,1372
2019-05-20T06:30:36.911Z,1436
2019-05-20T06:31:38.422Z,1456
2019-05-20T06:32:39.824Z,1364
2019-05-20T06:33:41.256Z,1296
2019-05-20T06:34:43.182Z,1308
2019-05-20T06:35:44.146Z,1312
2019-05-20T06:36:45.554Z,1452
2019-05-20T06:37:47.060Z,1396
2019-05-20T06:38:48.479Z,1224
2019-05-20T06:39:51.266Z,1192
2019-05-20T06:40:51.417Z,1172
2019-05-20T06:41:52.818Z,1132
2019-05-20T06:42:54.222Z,1176
2019-05-20T06:43:55.661Z,1288
2019-05-20T06:44:57.375Z,1368
2019-05-20T06:45:58.435Z,1336
2019-05-20T06:47:00.056Z,1324
2019-05-20T06:48:01.497Z,1484
2019-05-20T06:49:02.901Z,1620
2019-05-20T06:50:04.513Z,1796
2019-05-20T06:51:05.952Z,1784
2019-05-20T06:52:07.488Z,1932
2019-05-20T06:53:08.888Z,1900
2019-05-20T06:54:10.864Z,1852
2019-05-20T06:55:12.262Z,1696
2019-05-20T06:56:13.770Z,1708
2019-05-20T06:57:15.362Z,1356
2019-05-20T06:58:16.652Z,1296
2019-05-20T06:59:18.057Z,1596
2019-05-20T07:00:19.542Z,1760
2019-05-20T07:01:20.941Z,1776
2019-05-20T07:02:22.416Z,1620
2019-05-20T07:03:23.820Z,1500
2019-05-20T07:04:25.297Z,1452
2019-05-20T07:05:26.697Z,1428
2019-05-20T07:06:44.603Z,1504
2019-05-20T07:07:29.466Z,1520
2019-05-20T07:08:30.881Z,1352
2019-05-20T07:09:32.290Z,1436
2019-05-20T07:10:33.706Z,1428
2019-05-20T07:11:35.103Z,1548
2019-05-20T07:12:41.351Z,1792
2019-05-20T07:13:37.985Z,1796
2019-05-20T07:14:39.387Z,1804
2019-05-20T07:15:40.934Z,1752
2019-05-20T07:16:42.358Z,1868
2019-05-20T07:17:43.769Z,2152
2019-05-20T07:18:45.321Z,2232
2019-05-20T07:19:46.851Z,2076
2019-05-20T07:20:48.396Z,2156
2019-05-20T07:21:49.999Z,2128
2019-05-20T07:22:55.949Z,2140
2019-05-20T07:23:52.879Z,2188
2019-05-20T07:24:54.282Z,2600
2019-05-20T07:25:55.775Z,2860
2019-05-20T07:26:57.155Z,2692
2019-05-20T07:27:58.630Z,2392
2019-05-20T07:29:00.079Z,2584
2019-05-20T07:30:01.513Z,2572
2019-05-20T07:31:02.916Z,2824
2019-05-20T07:32:04.391Z,3100
2019-05-20T07:33:05.796Z,3176
2019-05-20T07:34:07.271Z,3080
2019-05-20T07:35:08.677Z,2948
2019-05-20T07:36:10.297Z,2884
2019-05-20T07:37:11.532Z,2872
2019-05-20T07:38:13.033Z,2928
2019-05-20T07:39:14.457Z,2812
2019-05-20T07:40:15.991Z,2996
2019-05-20T07:41:17.394Z,2780
2019-05-20T07:42:19.002Z,2572
2019-05-20T07:43:20.406Z,2508
2019-05-20T07:44:21.881Z,2560
2019-05-20T07:45:23.321Z,2192
2019-05-20T07:46:24.725Z,2008
2019-05-20T07:47:26.205Z,2108
2019-05-20T07:48:27.768Z,2236
2019-05-20T07:49:28.982Z,2164
2019-05-20T07:50:30.537Z,2220
2019-05-20T07:51:31.945Z,2640
2019-05-20T07:52:33.352Z,2656
2019-05-20T07:53:34.953Z,2420
2019-05-20T07:54:36.223Z,2368
2019-05-20T07:55:37.630Z,2296
2019-05-20T07:56:39.172Z,2232
2019-05-20T07:57:40.588Z,2400
2019-05-20T07:58:42.052Z,2388
2019-05-20T07:59:43.461Z,2520
2019-05-20T08:00:44.932Z,2324
2019-05-20T08:01:46.342Z,2028
2019-05-20T08:02:47.817Z,2024
2019-05-20T08:03:49.223Z,2124
2019-05-20T08:04:50.695Z,2028
2019-05-20T08:05:52.103Z,1988
2019-05-20T08:06:53.509Z,1828
2019-05-20T08:07:55.019Z,1668
2019-05-20T08:08:56.424Z,1584
2019-05-20T08:09:57.825Z,1628
2019-05-20T08:10:59.350Z,1764
2019-05-20T08:12:00.834Z,2108
2019-05-20T08:13:02.247Z,2196
2019-05-20T08:14:03.661Z,2500
2019-05-20T08:15:05.069Z,2600
2019-05-20T08:16:06.488Z,2624
2019-05-20T08:17:08.017Z,2736
2019-05-20T08:18:09.419Z,2756
2019-05-20T08:19:10.863Z,2668
2019-05-20T08:20:12.273Z,2324
2019-05-20T08:21:13.685Z,2216
2019-05-20T08:22:15.210Z,2248
2019-05-20T08:23:16.619Z,2104
2019-05-20T08:24:18.052Z,2080
2019-05-20T08:25:19.509Z,1964
2019-05-20T08:26:20.911Z,1808
2019-05-20T08:27:22.389Z,1916
2019-05-20T08:28:23.802Z,1884
2019-05-20T08:29:25.265Z,1916
2019-05-20T08:30:26.684Z,1856
2019-05-20T08:31:28.084Z,1828
2019-05-20T08:32:29.622Z,1788
2019-05-20T08:33:31.312Z,1792
2019-05-20T08:34:32.956Z,1816
2019-05-20T08:35:34.325Z,1780
2019-05-20T08:36:35.721Z,1796
2019-05-20T08:37:45.429Z,1716
2019-05-20T08:38:38.577Z,1664
2019-05-20T08:39:40.084Z,1652
2019-05-20T08:40:41.482Z,1660
2019-05-20T08:41:42.894Z,1732
2019-05-20T08:42:44.405Z,1724
2019-05-20T08:43:45.864Z,1828
2019-05-20T08:44:47.251Z,1776
2019-05-20T08:45:48.730Z,1820
2019-05-20T08:46:50.145Z,1928
2019-05-20T08:47:51.551Z,2144
2019-05-20T08:48:53.067Z,2320
2019-05-20T08:49:54.572Z,2484
2019-05-20T08:50:55.863Z,2644
2019-05-20T08:51:57.367Z,2668
2019-05-20T08:52:58.771Z,2700
2019-05-20T08:54:00.222Z,2596
2019-05-20T08:55:02.337Z,2340
2019-05-20T08:56:03.119Z,2148
2019-05-20T08:57:04.629Z,1960
2019-05-20T08:58:06.012Z,1836
2019-05-20T08:59:07.419Z,1812
2019-05-20T09:00:08.891Z,1888
2019-05-20T09:01:11.603Z,1908
2019-05-20T09:02:11.675Z,1988
2019-05-20T09:03:13.214Z,2108
2019-05-20T09:04:14.622Z,2168
2019-05-20T09:05:16.032Z,2312
2019-05-20T09:06:20.570Z,2748
2019-05-20T09:07:18.924Z,3148
2019-05-20T09:08:20.410Z,3100
2019-05-20T09:09:21.937Z,3068
2019-05-20T09:10:23.294Z,3140
2019-05-20T09:11:24.699Z,3024
2019-05-20T09:12:26.193Z,3116
2019-05-20T09:13:27.614Z,3140
2019-05-20T09:14:29.058Z,3064
2019-05-20T09:15:30.605Z,3008
2019-05-20T09:16:32.160Z,3276
2019-05-20T09:17:33.783Z,3456
2019-05-20T09:18:34.965Z,3480
2019-05-20T09:19:36.464Z,3492
2019-05-20T09:20:37.883Z,3528
2019-05-20T09:21:39.287Z,3300
2019-05-20T09:22:40.790Z,3180
2019-05-20T09:23:42.202Z,3344
2019-05-20T09:24:43.851Z,3452
2019-05-20T09:25:45.069Z,2984
2019-05-20T09:26:46.549Z,2932
2019-05-20T09:27:47.960Z,3008
2019-05-20T09:28:49.463Z,3524
2019-05-20T09:29:50.871Z,3752
2019-05-20T09:30:52.309Z,3928
2019-05-20T09:31:53.718Z,3488
2019-05-20T09:32:55.177Z,3404
2019-05-20T09:33:56.635Z,3424
2019-05-20T09:34:58.045Z,3840
2019-05-20T09:35:59.441Z,3916
2019-05-20T09:37:00.955Z,3892
2019-05-20T09:38:17.255Z,3816
2019-05-20T09:39:03.854Z,3196
2019-05-20T09:40:05.247Z,3048
2019-05-20T09:41:06.723Z,3404
2019-05-20T09:42:08.173Z,3772
2019-05-20T09:43:09.555Z,3472
2019-05-20T09:44:11.038Z,3332
2019-05-20T09:45:12.447Z,3520
2019-05-20T09:46:13.850Z,3440
2019-05-20T09:47:15.372Z,3080
2019-05-20T09:48:16.776Z,2936
2019-05-20T09:49:18.190Z,3112
2019-05-20T09:50:19.679Z,3272
2019-05-20T09:51:21.214Z,3140
2019-05-20T09:52:22.468Z,2872
2019-05-20T09:53:24.050Z,2948
2019-05-20T09:54:25.371Z,2816
2019-05-20T09:55:26.887Z,2784
2019-05-20T09:56:28.291Z,2900
2019-05-20T09:57:29.771Z,2956
2019-05-20T09:58:31.203Z,2912
2019-05-20T09:59:42.562Z,2896
2019-05-20T10:00:33.980Z,2828
2019-05-20T10:01:39.430Z,2596
2019-05-20T10:02:38.157Z,2528
2019-05-20T10:03:38.413Z,3004
2019-05-20T10:04:39.825Z,3440
2019-05-20T10:05:41.316Z,3200
2019-05-20T10:06:42.726Z,2924
2019-05-20T10:07:44.139Z,2980
2019-05-20T10:08:45.695Z,3096
2019-05-20T10:09:47.013Z,3640
2019-05-20T10:10:48.419Z,4040
2019-05-20T10:11:49.964Z,4008
2019-05-20T10:12:51.364Z,4228
2019-05-20T10:13:52.867Z,4192
2019-05-20T10:14:54.251Z,3948
2019-05-20T10:15:55.723Z,3640
2019-05-20T10:16:57.131Z,3456
2019-05-20T10:17:58.574Z,3384
2019-05-20T10:19:00.062Z,3492
2019-05-20T10:20:01.902Z,3868
2019-05-20T10:21:03.358Z,4084
2019-05-20T10:22:04.776Z,4016
2019-05-20T10:23:06.254Z,3748
2019-05-20T10:24:07.609Z,3768
2019-05-20T10:25:09.103Z,3752
2019-05-20T10:26:10.505Z,3580
2019-05-20T10:27:11.914Z,3496
2019-05-20T10:28:13.418Z,3376
2019-05-20T10:29:14.830Z,3208
2019-05-20T10:30:16.238Z,3156
2019-05-20T10:31:17.741Z,3320
2019-05-20T10:32:19.158Z,3148
2019-05-20T10:33:20.561Z,3304
2019-05-20T10:34:22.063Z,3628
2019-05-20T10:35:23.474Z,3692
2019-05-20T10:36:24.881Z,3668
2019-05-20T10:37:26.392Z,3772
2019-05-20T10:38:27.820Z,3972
2019-05-20T10:39:29.253Z,4000
2019-05-20T10:40:30.788Z,4080
2019-05-20T10:41:32.128Z,4040
2019-05-20T10:42:33.551Z,3976
2019-05-20T10:43:35.030Z,3948
2019-05-20T10:44:36.440Z,4060
2019-05-20T10:45:37.946Z,4164
2019-05-20T10:46:39.350Z,4124
2019-05-20T10:47:41.000Z,4048
2019-05-20T10:48:42.395Z,3812
2019-05-20T10:49:43.875Z,3680
2019-05-20T10:50:45.282Z,3708
2019-05-20T10:51:46.761Z,3820
2019-05-20T10:52:48.163Z,3620
2019-05-20T10:53:49.643Z,3592
2019-05-20T10:54:51.064Z,3604
2019-05-20T10:55:52.526Z,3936
2019-05-20T10:56:53.932Z,4072
2019-05-20T10:57:55.396Z,3932
2019-05-20T10:58:56.805Z,3968
2019-05-20T10:59:58.316Z,4064
2019-05-20T11:01:03.295Z,4028
2019-05-20T11:02:01.360Z,4064
2019-05-20T11:03:03.004Z,3932
2019-05-20T11:04:04.184Z,3856
2019-05-20T11:05:05.688Z,4104
2019-05-20T11:06:07.140Z,4332
2019-05-20T11:07:08.469Z,4168
2019-05-20T11:08:10.008Z,3920
2019-05-20T11:09:13.988Z,3800
2019-05-20T11:10:13.299Z,3792
2019-05-20T11:11:14.831Z,3808
2019-05-20T11:12:16.201Z,3748
2019-05-20T11:13:17.609Z,3524
2019-05-20T11:14:19.020Z,3416
2019-05-20T11:15:20.512Z,3328
2019-05-20T11:16:21.919Z,3168
2019-05-20T11:17:23.355Z,3260
2019-05-20T11:18:24.821Z,3412
2019-05-20T11:19:26.232Z,3460
2019-05-20T11:20:27.635Z,3464
2019-05-20T11:21:29.144Z,3380
2019-05-20T11:22:30.546Z,3368
2019-05-20T11:23:31.951Z,3356
2019-05-20T11:24:33.462Z,3324
2019-05-20T11:25:34.884Z,3344
2019-05-20T11:26:36.358Z,3328
2019-05-20T11:27:37.786Z,3280
2019-05-20T11:28:39.224Z,3344
2019-05-20T11:29:40.626Z,3400
2019-05-20T11:30:42.107Z,3276
2019-05-20T11:31:43.509Z,3268
2019-05-20T11:32:44.997Z,3304
2019-05-20T11:33:46.399Z,3324
2019-05-20T11:34:47.905Z,3396
2019-05-20T11:35:49.323Z,3448
2019-05-20T11:36:50.714Z,3560
2019-05-20T11:37:52.120Z,3656
2019-05-20T11:38:53.654Z,3880
2019-05-20T11:39:55.073Z,4440
2019-05-20T11:40:56.477Z,4740
2019-05-20T11:41:57.949Z,4400
2019-05-20T11:42:59.364Z,3932
2019-05-20T11:44:00.843Z,3828
2019-05-20T11:45:02.477Z,3804
2019-05-20T11:46:03.910Z,3808
2019-05-20T11:47:05.297Z,3944
2019-05-20T11:48:06.820Z,4188
2019-05-20T11:49:08.265Z,4232
2019-05-20T11:50:09.895Z,3872
2019-05-20T11:51:11.301Z,3560
2019-05-20T11:52:12.766Z,3444
2019-05-20T11:53:14.174Z,3516
2019-05-20T11:54:15.667Z,3492
2019-05-20T11:55:17.075Z,3284
2019-05-20T11:56:18.527Z,3176
2019-05-20T11:57:19.948Z,3268
2019-05-20T11:58:21.401Z,3480
2019-05-20T11:59:22.816Z,3472
2019-05-20T12:00:24.326Z,3192
2019-05-20T12:01:25.694Z,3020
2019-05-20T12:02:27.172Z,2972
2019-05-20T12:03:28.582Z,3052
2019-05-20T12:04:29.990Z,3228
2019-05-20T12:05:31.528Z,3344
2019-05-20T12:06:32.936Z,3304
2019-05-20T12:07:34.344Z,3100
2019-05-20T12:08:35.815Z,3084
2019-05-20T12:09:49.268Z,2964
2019-05-20T12:10:38.631Z,2884
2019-05-20T12:11:40.135Z,3140
2019-05-20T12:12:41.543Z,3412
2019-05-20T12:13:42.904Z,3852
2019-05-20T12:14:44.455Z,3888
2019-05-20T12:15:45.862Z,3700
2019-05-20T12:16:47.342Z,3856
2019-05-20T12:17:48.755Z,4316
2019-05-20T12:18:50.218Z,4532
2019-05-20T12:19:51.637Z,4340
2019-05-20T12:20:53.096Z,3748
2019-05-20T12:21:54.533Z,3464
2019-05-20T12:22:56.010Z,3620
2019-05-20T12:23:57.421Z,4208
2019-05-20T12:24:58.881Z,4540
2019-05-20T12:26:00.214Z,4424
2019-05-20T12:27:01.737Z,3996
2019-05-20T12:28:03.148Z,3756
2019-05-20T12:29:04.621Z,3660
2019-05-20T12:30:06.454Z,3684
2019-05-20T12:31:07.827Z,3764
2019-05-20T12:32:09.402Z,3960
2019-05-20T12:33:18.410Z,4268
2019-05-20T12:34:12.235Z,4388
2019-05-20T12:35:13.891Z,4628
2019-05-20T12:36:15.291Z,5304
2019-05-20T12:37:16.751Z,5508
2019-05-20T12:38:18.181Z,5548
2019-05-20T12:39:20.010Z,5532
2019-05-20T12:40:21.444Z,5216
2019-05-20T12:41:23.280Z,5668
2019-05-20T12:42:24.597Z,5600
2019-05-20T12:43:26.001Z,5192
2019-05-20T12:44:27.462Z,4812
2019-05-20T12:45:28.876Z,4948
2019-05-20T12:46:30.344Z,5564
2019-05-20T12:47:31.753Z,5576
2019-05-20T12:48:33.281Z,5628
2019-05-20T12:49:34.745Z,5952
2019-05-20T12:50:36.038Z,5488
2019-05-20T12:51:37.547Z,5500
2019-05-20T12:52:38.949Z,5664
2019-05-20T12:53:40.447Z,5852
2019-05-20T12:54:42.242Z,5636
2019-05-20T12:55:43.647Z,4948
2019-05-20T12:56:45.055Z,5244
2019-05-20T12:57:46.595Z,5800
2019-05-20T12:58:48.004Z,5860
2019-05-20T12:59:49.409Z,5648
2019-05-20T13:00:51.063Z,5196
2019-05-20T13:01:52.470Z,5044
2019-05-20T13:02:53.883Z,5436
2019-05-20T13:03:55.446Z,5936
2019-05-20T13:04:56.845Z,5892
2019-05-20T13:05:58.304Z,5624
2019-05-20T13:06:59.708Z,5484
2019-05-20T13:08:01.202Z,5412
2019-05-20T13:09:02.986Z,5844
2019-05-20T13:10:04.552Z,6172
2019-05-20T13:11:05.956Z,6584
2019-05-20T13:12:07.588Z,6392
2019-05-20T13:13:08.994Z,5988
2019-05-20T13:14:10.467Z,6084
2019-05-20T13:15:12.029Z,5796
2019-05-20T13:16:13.528Z,5040
2019-05-20T13:17:14.934Z,5052
2019-05-20T13:18:16.429Z,5420
2019-05-20T13:19:17.842Z,5156
2019-05-20T13:20:19.309Z,5220
2019-05-20T13:21:20.722Z,5056
2019-05-20T13:22:22.191Z,5104
2019-05-20T13:23:23.601Z,4780
2019-05-20T13:24:25.099Z,4548
2019-05-20T13:25:26.481Z,4788
2019-05-20T13:26:27.962Z,4612
2019-05-20T13:27:29.368Z,3872
2019-05-20T13:28:30.868Z,3592
2019-05-20T13:29:32.280Z,3344
2019-05-20T13:30:33.902Z,3332
2019-05-20T13:31:35.379Z,3580
2019-05-20T13:32:37.017Z,3708
2019-05-20T13:33:38.409Z,3680
2019-05-20T13:34:39.894Z,3256
2019-05-20T13:35:41.296Z,3076
2019-05-20T13:36:42.714Z,3520
2019-05-20T13:37:44.220Z,4276
2019-05-20T13:38:45.615Z,4376
2019-05-20T13:39:47.034Z,4256
2019-05-20T13:40:48.527Z,4556
2019-05-20T13:41:49.940Z,4156
2019-05-20T13:42:51.344Z,3864
2019-05-20T13:43:52.850Z,4048
2019-05-20T13:44:54.259Z,3908
2019-05-20T13:45:55.678Z,4328
2019-05-20T13:46:57.268Z,4888
2019-05-20T13:47:58.676Z,4356
2019-05-20T13:49:00.082Z,4424
2019-05-20T13:50:01.697Z,4600
2019-05-20T13:51:03.194Z,4748
2019-05-20T13:52:04.473Z,4928
2019-05-20T13:53:06.061Z,5180
2019-05-20T13:54:07.467Z,5068
2019-05-20T13:55:09.050Z,5128
2019-05-20T13:56:10.345Z,5316
2019-05-20T13:57:13.046Z,4484
2019-05-20T13:58:13.274Z,3808
2019-05-20T13:59:14.681Z,3500
2019-05-20T14:00:16.311Z,3656
2019-05-20T14:01:17.880Z,4020
2019-05-20T14:02:19.393Z,3904
2019-05-20T14:03:21.187Z,3672
2019-05-20T14:04:22.676Z,3388